sensor_id;sensor_type;location;lat;lon;timestamp;pressure;altitude;pressure_sealevel;temperature;humidity
39341;BME280;25059;52.132;21.062;2023-09-07T05:33:33;101405.91;;;17.83;100.00
39341;BME280;25059;52.132;21.062;2023-09-07T05:36:26;101407.53;;;18.02;100.00
39341;BME280;25059;52.132;21.062;2023-09-07T05:39:13;101412.06;;;18.33;100.00
39341;BME280;25059;52.132;21.062;2023-09-07T05:41:57;101408.47;;;18.34;100.00
39341;BME280;25059;52.132;21.062;2023-09-07T05:44:42;101409.34;;;18.35;100.00
39341;BME280;25059;52.132;21.062;2023-09-07T05:47:27;101416.72;;;18.46;100.00
39341;BME280;25059;52.132;21.062;2023-09-07T05:50:13;101413.00;;;18.65;100.00
39341;BME280;25059;52.132;21.062;2023-09-07T05:52:58;101417.06;;;18.88;100.00
39341;BME280;25059;52.132;21.062;2023-09-07T05:55:42;101411.97;;;18.99;100.00
39341;BME280;25059;52.132;21.062;2023-09-07T05:58:30;101404.91;;;19.14;100.00
39341;BME280;25059;52.132;21.062;2023-09-07T06:01:17;101426.34;;;19.43;100.00
39341;BME280;25059;52.132;21.062;2023-09-07T06:04:02;101419.13;;;19.45;100.00
39341;BME280;25059;52.132;21.062;2023-09-07T06:06:47;101421.19;;;19.55;100.00
39341;BME280;25059;52.132;21.062;2023-09-07T06:09:35;101419.50;;;19.68;100.00
39341;BME280;25059;52.132;21.062;2023-09-07T06:12:20;101422.81;;;19.58;100.00
39341;BME280;25059;52.132;21.062;2023-09-07T06:15:05;101422.66;;;19.75;100.00
39341;BME280;25059;52.132;21.062;2023-09-07T06:17:58;101421.09;;;20.01;100.00
39341;BME280;25059;52.132;21.062;2023-09-07T06:20:42;101431.88;;;20.14;100.00
39341;BME280;25059;52.132;21.062;2023-09-07T06:23:27;101426.72;;;20.25;100.00
39341;BME280;25059;52.132;21.062;2023-09-07T06:26:13;101425.38;;;20.32;100.00
39341;BME280;25059;52.132;21.062;2023-09-07T06:28:58;101417.50;;;20.45;100.00
39341;BME280;25059;52.132;21.062;2023-09-07T06:31:43;101433.22;;;20.63;100.00
39341;BME280;25059;52.132;21.062;2023-09-07T06:34:28;101433.69;;;20.70;100.00
39341;BME280;25059;52.132;21.062;2023-09-07T06:37:13;101428.22;;;20.86;100.00
39341;BME280;25059;52.132;21.062;2023-09-07T06:39:58;101427.31;;;21.00;100.00
39341;BME280;25059;52.132;21.062;2023-09-07T06:42:42;101432.88;;;20.96;100.00
39341;BME280;25059;52.132;21.062;2023-09-07T06:45:27;101433.28;;;21.17;100.00
39341;BME280;25059;52.132;21.062;2023-09-07T06:48:12;101431.63;;;21.29;100.00
39341;BME280;25059;52.132;21.062;2023-09-07T06:51:04;101434.47;;;21.40;100.00
39341;BME280;25059;52.132;21.062;2023-09-07T06:53:49;101437.03;;;21.42;100.00
39341;BME280;25059;52.132;21.062;2023-09-07T06:56:34;101434.72;;;21.63;100.00
39341;BME280;25059;52.132;21.062;2023-09-07T06:59:19;101439.25;;;21.75;100.00
39341;BME280;25059;52.132;21.062;2023-09-07T07:02:04;101429.41;;;21.75;100.00
39341;BME280;25059;52.132;21.062;2023-09-07T07:04:50;101434.97;;;21.85;100.00
39341;BME280;25059;52.132;21.062;2023-09-07T07:07:34;101432.53;;;21.95;100.00
39341;BME280;25059;52.132;21.062;2023-09-07T07:10:19;101426.53;;;21.91;100.00
39341;BME280;25059;52.132;21.062;2023-09-07T07:13:05;101437.81;;;22.09;100.00
39341;BME280;25059;52.132;21.062;2023-09-07T07:15:50;101446.16;;;22.30;100.00
39341;BME280;25059;52.132;21.062;2023-09-07T07:18:34;101442.19;;;22.48;100.00
39341;BME280;25059;52.132;21.062;2023-09-07T07:21:19;101449.47;;;22.46;100.00
39341;BME280;25059;52.132;21.062;2023-09-07T07:24:04;101440.34;;;22.48;100.00
39341;BME280;25059;52.132;21.062;2023-09-07T07:27:20;101456.06;;;22.78;100.00
39341;BME280;25059;52.132;21.062;2023-09-07T07:30:05;101441.16;;;22.87;100.00
39341;BME280;25059;52.132;21.062;2023-09-07T07:32:53;101446.72;;;22.97;100.00
39341;BME280;25059;52.132;21.062;2023-09-07T07:35:38;101452.13;;;23.08;100.00
39341;BME280;25059;52.132;21.062;2023-09-07T07:38:22;101447.25;;;23.26;100.00
39341;BME280;25059;52.132;21.062;2023-09-07T07:41:10;101454.03;;;23.42;100.00
39341;BME280;25059;52.132;21.062;2023-09-07T07:43:55;101450.53;;;23.53;100.00
39341;BME280;25059;52.132;21.062;2023-09-07T07:46:40;101451.19;;;23.57;100.00
39341;BME280;25059;52.132;21.062;2023-09-07T07:49:25;101449.66;;;23.76;100.00
39341;BME280;25059;52.132;21.062;2023-09-07T07:52:11;101448.50;;;23.92;100.00
39341;BME280;25059;52.132;21.062;2023-09-07T07:54:56;101456.19;;;23.96;100.00
39341;BME280;25059;52.132;21.062;2023-09-07T07:57:40;101459.25;;;24.03;100.00
39341;BME280;25059;52.132;21.062;2023-09-07T08:00:30;101454.81;;;24.37;100.00
39341;BME280;25059;52.132;21.062;2023-09-07T08:03:15;101461.66;;;24.41;100.00
39341;BME280;25059;52.132;21.062;2023-09-07T08:06:00;101461.41;;;24.44;100.00
39341;BME280;25059;52.132;21.062;2023-09-07T08:08:44;101461.41;;;24.44;100.00
39341;BME280;25059;52.132;21.062;2023-09-07T08:11:29;101458.97;;;24.74;100.00
39341;BME280;25059;52.132;21.062;2023-09-07T08:14:13;101458.19;;;24.95;100.00
39341;BME280;25059;52.132;21.062;2023-09-07T08:16:58;101457.72;;;25.01;100.00
39341;BME280;25059;52.132;21.062;2023-09-07T08:19:43;101462.50;;;24.97;100.00
39341;BME280;25059;52.132;21.062;2023-09-07T08:22:28;101458.84;;;24.98;100.00
39341;BME280;25059;52.132;21.062;2023-09-07T08:25:13;101459.22;;;25.37;100.00
39341;BME280;25059;52.132;21.062;2023-09-07T08:27:58;101461.25;;;25.44;100.00
39341;BME280;25059;52.132;21.062;2023-09-07T08:30:45;101460.69;;;25.73;100.00
39341;BME280;25059;52.132;21.062;2023-09-07T08:33:31;101458.44;;;25.78;100.00
39341;BME280;25059;52.132;21.062;2023-09-07T08:36:21;101456.88;;;25.64;100.00
39341;BME280;25059;52.132;21.062;2023-09-07T08:39:08;101462.41;;;25.63;100.00
39341;BME280;25059;52.132;21.062;2023-09-07T08:41:57;101457.72;;;25.76;100.00
39341;BME280;25059;52.132;21.062;2023-09-07T08:44:42;101463.25;;;25.95;100.00
39341;BME280;25059;52.132;21.062;2023-09-07T08:47:30;101461.56;;;26.25;100.00
39341;BME280;25059;52.132;21.062;2023-09-07T08:50:17;101462.28;;;26.48;100.00
39341;BME280;25059;52.132;21.062;2023-09-07T08:53:04;101463.19;;;26.58;100.00
39341;BME280;25059;52.132;21.062;2023-09-07T08:55:49;101444.88;;;26.61;100.00
39341;BME280;25059;52.132;21.062;2023-09-07T08:58:34;101455.66;;;26.61;100.00
39341;BME280;25059;52.132;21.062;2023-09-07T09:01:20;101459.25;;;26.71;100.00
39341;BME280;25059;52.132;21.062;2023-09-07T09:04:10;101455.63;;;26.92;100.00
39341;BME280;25059;52.132;21.062;2023-09-07T09:06:57;101453.00;;;27.11;100.00
39341;BME280;25059;52.132;21.062;2023-09-07T09:09:43;101452.88;;;27.32;99.47
39341;BME280;25059;52.132;21.062;2023-09-07T09:12:35;101446.78;;;27.40;99.41
39341;BME280;25059;52.132;21.062;2023-09-07T09:15:22;101455.88;;;27.48;99.29
39341;BME280;25059;52.132;21.062;2023-09-07T09:18:11;101441.09;;;27.72;98.88
39341;BME280;25059;52.132;21.062;2023-09-07T09:20:57;101451.75;;;27.73;95.06
39341;BME280;25059;52.132;21.062;2023-09-07T09:23:52;101444.16;;;28.06;94.60
39341;BME280;25059;52.132;21.062;2023-09-07T09:26:37;101442.03;;;27.99;92.40
39341;BME280;25059;52.132;21.062;2023-09-07T09:29:27;101441.03;;;28.10;89.12
39341;BME280;25059;52.132;21.062;2023-09-07T09:32:13;101449.41;;;28.17;87.04
39341;BME280;25059;52.132;21.062;2023-09-07T09:34:59;101447.06;;;28.41;88.58
39341;BME280;25059;52.132;21.062;2023-09-07T09:37:48;101446.13;;;28.13;88.88
39341;BME280;25059;52.132;21.062;2023-09-07T09:40:34;101453.59;;;28.48;85.42
39341;BME280;25059;52.132;21.062;2023-09-07T09:43:24;101451.19;;;28.45;84.32
39341;BME280;25059;52.132;21.062;2023-09-07T09:46:14;101446.19;;;28.50;82.78
39341;BME280;25059;52.132;21.062;2023-09-07T09:48:59;101446.38;;;28.67;80.58
39341;BME280;25059;52.132;21.062;2023-09-07T09:51:45;101448.03;;;28.77;78.70
39341;BME280;25059;52.132;21.062;2023-09-07T09:54:36;101447.09;;;28.96;76.06
39341;BME280;25059;52.132;21.062;2023-09-07T09:57:20;101453.22;;;28.98;77.87
39341;BME280;25059;52.132;21.062;2023-09-07T10:00:07;101442.88;;;29.29;74.73
39341;BME280;25059;52.132;21.062;2023-09-07T10:03:15;101447.41;;;29.56;74.48
39341;BME280;25059;52.132;21.062;2023-09-07T10:06:12;101443.72;;;31.11;69.46
39341;BME280;25059;52.132;21.062;2023-09-07T10:09:04;101437.41;;;32.49;60.68
39341;BME280;25059;52.132;21.062;2023-09-07T10:11:53;101434.03;;;34.15;55.51
39341;BME280;25059;52.132;21.062;2023-09-07T10:14:41;101431.09;;;36.24;46.67
39341;BME280;25059;52.132;21.062;2023-09-07T10:17:26;101437.72;;;37.65;44.58
39341;BME280;25059;52.132;21.062;2023-09-07T10:20:11;101445.47;;;38.41;40.91
39341;BME280;25059;52.132;21.062;2023-09-07T10:23:03;101435.06;;;38.56;37.41
39341;BME280;25059;52.132;21.062;2023-09-07T10:25:51;101435.81;;;40.02;35.04
39341;BME280;25059;52.132;21.062;2023-09-07T10:28:36;101436.22;;;40.06;32.23
39341;BME280;25059;52.132;21.062;2023-09-07T10:31:25;101447.84;;;41.29;30.48
39341;BME280;25059;52.132;21.062;2023-09-07T10:34:10;101431.56;;;40.80;30.56
39341;BME280;25059;52.132;21.062;2023-09-07T10:36:58;101444.41;;;41.16;31.25
39341;BME280;25059;52.132;21.062;2023-09-07T10:39:44;101435.56;;;42.49;27.96
39341;BME280;25059;52.132;21.062;2023-09-07T10:42:30;101438.19;;;42.55;27.42
39341;BME280;25059;52.132;21.062;2023-09-07T10:45:16;101433.91;;;42.76;26.90
39341;BME280;25059;52.132;21.062;2023-09-07T10:48:02;101435.69;;;42.82;26.48
39341;BME280;25059;52.132;21.062;2023-09-07T10:50:48;101433.25;;;43.43;26.14
39341;BME280;25059;52.132;21.062;2023-09-07T10:53:33;101434.25;;;44.04;25.45
39341;BME280;25059;52.132;21.062;2023-09-07T10:56:17;101436.78;;;43.55;23.82
39341;BME280;25059;52.132;21.062;2023-09-07T10:59:02;101430.75;;;43.13;25.34
39341;BME280;25059;52.132;21.062;2023-09-07T11:01:46;101434.09;;;42.58;25.40
39341;BME280;25059;52.132;21.062;2023-09-07T11:04:34;101427.97;;;41.51;25.83
39341;BME280;25059;52.132;21.062;2023-09-07T11:07:19;101433.16;;;42.81;24.65
39341;BME280;25059;52.132;21.062;2023-09-07T11:10:06;101423.06;;;43.99;23.03
39341;BME280;25059;52.132;21.062;2023-09-07T11:12:51;101421.84;;;45.58;22.36
39341;BME280;25059;52.132;21.062;2023-09-07T11:15:45;101430.97;;;46.32;20.47
39341;BME280;25059;52.132;21.062;2023-09-07T11:18:30;101419.63;;;43.92;21.85
39341;BME280;25059;52.132;21.062;2023-09-07T11:21:14;101415.50;;;42.30;23.62
39341;BME280;25059;52.132;21.062;2023-09-07T11:24:00;101422.13;;;41.94;24.40
39341;BME280;25059;52.132;21.062;2023-09-07T11:26:48;101410.44;;;43.07;23.90
39341;BME280;25059;52.132;21.062;2023-09-07T11:29:38;101412.38;;;43.24;22.73
39341;BME280;25059;52.132;21.062;2023-09-07T11:32:33;101416.78;;;41.04;25.76
39341;BME280;25059;52.132;21.062;2023-09-07T11:35:31;101414.00;;;41.34;24.98
39341;BME280;25059;52.132;21.062;2023-09-07T11:38:22;101410.22;;;43.26;23.48
39341;BME280;25059;52.132;21.062;2023-09-07T11:41:06;101408.13;;;44.87;21.39
39341;BME280;25059;52.132;21.062;2023-09-07T11:43:51;101400.47;;;45.26;21.28
39341;BME280;25059;52.132;21.062;2023-09-07T11:46:37;101404.28;;;45.89;20.95
39341;BME280;25059;52.132;21.062;2023-09-07T11:49:21;101401.16;;;47.16;20.35
39341;BME280;25059;52.132;21.062;2023-09-07T11:52:06;101406.75;;;47.56;19.39
39341;BME280;25059;52.132;21.062;2023-09-07T11:58:27;101407.72;;;48.27;18.00
39341;BME280;25059;52.132;21.062;2023-09-07T12:01:13;101412.25;;;45.70;19.97
39341;BME280;25059;52.132;21.062;2023-09-07T12:04:00;101404.81;;;42.22;21.91
39341;BME280;25059;52.132;21.062;2023-09-07T12:06:45;101407.38;;;39.59;25.06
39341;BME280;25059;52.132;21.062;2023-09-07T12:09:29;101401.94;;;38.31;27.42
39341;BME280;25059;52.132;21.062;2023-09-07T12:12:14;101403.72;;;36.72;28.59
39341;BME280;25059;52.132;21.062;2023-09-07T12:14:59;101404.13;;;37.43;29.14
39341;BME280;25059;52.132;21.062;2023-09-07T12:17:44;101400.75;;;39.66;26.11
39341;BME280;25059;52.132;21.062;2023-09-07T12:20:29;101399.13;;;42.29;22.93
39341;BME280;25059;52.132;21.062;2023-09-07T12:23:13;101384.38;;;43.70;21.88
39341;BME280;25059;52.132;21.062;2023-09-07T12:25:58;101395.84;;;43.96;21.53
39341;BME280;25059;52.132;21.062;2023-09-07T12:28:43;101394.94;;;44.51;20.34
39341;BME280;25059;52.132;21.062;2023-09-07T12:31:33;101388.75;;;45.93;18.82
39341;BME280;25059;52.132;21.062;2023-09-07T12:34:23;101378.56;;;46.82;17.33
39341;BME280;25059;52.132;21.062;2023-09-07T12:37:11;101384.94;;;47.79;16.33
39341;BME280;25059;52.132;21.062;2023-09-07T12:39:56;101384.56;;;48.16;16.43
39341;BME280;25059;52.132;21.062;2023-09-07T12:42:41;101382.78;;;47.55;16.62
39341;BME280;25059;52.132;21.062;2023-09-07T12:45:26;101385.66;;;48.79;16.25
39341;BME280;25059;52.132;21.062;2023-09-07T12:48:11;101383.97;;;49.80;14.89
39341;BME280;25059;52.132;21.062;2023-09-07T12:50:58;101381.16;;;51.22;14.12
39341;BME280;25059;52.132;21.062;2023-09-07T12:53:43;101386.19;;;50.88;13.84
39341;BME280;25059;52.132;21.062;2023-09-07T12:56:28;101393.25;;;50.66;14.23
39341;BME280;25059;52.132;21.062;2023-09-07T12:59:13;101378.63;;;51.40;14.12
39341;BME280;25059;52.132;21.062;2023-09-07T13:01:58;101382.03;;;52.10;13.46
39341;BME280;25059;52.132;21.062;2023-09-07T13:04:43;101368.03;;;51.36;13.65
39341;BME280;25059;52.132;21.062;2023-09-07T13:07:28;101368.94;;;52.55;13.18
39341;BME280;25059;52.132;21.062;2023-09-07T13:10:13;101357.03;;;53.79;12.31
39341;BME280;25059;52.132;21.062;2023-09-07T13:12:58;101362.06;;;55.46;11.46
39341;BME280;25059;52.132;21.062;2023-09-07T13:15:43;101370.53;;;55.46;10.67
39341;BME280;25059;52.132;21.062;2023-09-07T13:18:28;101358.94;;;55.39;10.42
39341;BME280;25059;52.132;21.062;2023-09-07T13:21:13;101359.97;;;57.51;9.58
39341;BME280;25059;52.132;21.062;2023-09-07T13:23:58;101354.53;;;55.67;10.49
39341;BME280;25059;52.132;21.062;2023-09-07T13:26:46;101354.84;;;57.20;9.47
39341;BME280;25059;52.132;21.062;2023-09-07T13:29:33;101355.22;;;58.29;8.83
39341;BME280;25059;52.132;21.062;2023-09-07T13:32:17;101365.22;;;58.38;8.64
39341;BME280;25059;52.132;21.062;2023-09-07T13:35:04;101358.72;;;56.83;9.54
39341;BME280;25059;52.132;21.062;2023-09-07T13:37:49;101345.91;;;53.34;11.00
39341;BME280;25059;52.132;21.062;2023-09-07T13:40:33;101344.50;;;53.23;10.68
39341;BME280;25059;52.132;21.062;2023-09-07T13:43:18;101340.81;;;49.00;13.35
39341;BME280;25059;52.132;21.062;2023-09-07T13:46:03;101344.63;;;44.96;15.73
39341;BME280;25059;52.132;21.062;2023-09-07T13:48:47;101336.66;;;48.58;14.17
39341;BME280;25059;52.132;21.062;2023-09-07T13:51:32;101340.88;;;53.53;12.24
39341;BME280;25059;52.132;21.062;2023-09-07T13:54:22;101336.81;;;55.88;9.76
39341;BME280;25059;52.132;21.062;2023-09-07T13:57:06;101340.84;;;58.09;9.12
39341;BME280;25059;52.132;21.062;2023-09-07T13:59:51;101339.81;;;57.77;8.84
39341;BME280;25059;52.132;21.062;2023-09-07T14:02:37;101345.03;;;58.40;8.44
39341;BME280;25059;52.132;21.062;2023-09-07T14:05:21;101341.03;;;59.28;8.63
39341;BME280;25059;52.132;21.062;2023-09-07T14:08:11;101347.69;;;58.89;8.64
39341;BME280;25059;52.132;21.062;2023-09-07T14:10:57;101339.25;;;58.92;8.10
39341;BME280;25059;52.132;21.062;2023-09-07T14:13:42;101355.59;;;58.03;8.49
39341;BME280;25059;52.132;21.062;2023-09-07T14:16:27;101364.47;;;58.53;8.33
39341;BME280;25059;52.132;21.062;2023-09-07T14:19:11;101369.44;;;57.10;8.82
39341;BME280;25059;52.132;21.062;2023-09-07T14:21:56;101359.16;;;58.00;8.53
39341;BME280;25059;52.132;21.062;2023-09-07T14:24:41;101342.84;;;58.49;8.05
39341;BME280;25059;52.132;21.062;2023-09-07T14:27:26;101330.94;;;57.79;8.61
39341;BME280;25059;52.132;21.062;2023-09-07T14:30:11;101313.72;;;56.57;9.27
39341;BME280;25059;52.132;21.062;2023-09-07T14:32:57;101318.25;;;56.70;8.90
39341;BME280;25059;52.132;21.062;2023-09-07T14:35:42;101307.16;;;56.98;8.65
39341;BME280;25059;52.132;21.062;2023-09-07T14:38:26;101319.88;;;55.58;9.60
39341;BME280;25059;52.132;21.062;2023-09-07T14:41:11;101322.31;;;55.98;9.47
39341;BME280;25059;52.132;21.062;2023-09-07T14:44:03;101313.41;;;56.71;8.72
39341;BME280;25059;52.132;21.062;2023-09-07T14:46:49;101304.13;;;55.49;9.39
39341;BME280;25059;52.132;21.062;2023-09-07T14:49:34;101306.38;;;55.17;9.61
39341;BME280;25059;52.132;21.062;2023-09-07T14:52:19;101291.44;;;55.93;9.76
39341;BME280;25059;52.132;21.062;2023-09-07T14:55:04;101293.72;;;55.70;9.22
39341;BME280;25059;52.132;21.062;2023-09-07T14:57:51;101288.00;;;55.11;9.53
39341;BME280;25059;52.132;21.062;2023-09-07T15:00:36;101277.63;;;54.51;9.53
39341;BME280;25059;52.132;21.062;2023-09-07T15:03:20;101268.47;;;53.94;10.45
39341;BME280;25059;52.132;21.062;2023-09-07T15:06:05;101260.56;;;54.04;10.52
39341;BME280;25059;52.132;21.062;2023-09-07T15:08:50;101255.97;;;52.89;10.75
39341;BME280;25059;52.132;21.062;2023-09-07T15:11:35;101250.44;;;52.53;10.98
39341;BME280;25059;52.132;21.062;2023-09-07T15:14:19;101242.47;;;52.47;10.96
39341;BME280;25059;52.132;21.062;2023-09-07T15:17:05;101266.44;;;51.81;11.96
39341;BME280;25059;52.132;21.062;2023-09-07T15:19:49;101281.47;;;51.30;12.01
39341;BME280;25059;52.132;21.062;2023-09-07T15:22:34;101277.34;;;48.71;14.06
39341;BME280;25059;52.132;21.062;2023-09-07T15:25:19;101271.41;;;49.12;13.94
39341;BME280;25059;52.132;21.062;2023-09-07T15:28:04;101270.03;;;49.38;14.18
39341;BME280;25059;52.132;21.062;2023-09-07T15:30:53;101271.91;;;48.51;14.64
